KOUN/OUN METAR and TAF weather

Enter ICAO airport designator
Station Type Date Time Source
KOUN METAR 2020/03/29 13:45 UTC NOAA

KOUN 291345Z 00000KT 10SM CLR 09/04 A3014


Station Type Date Time Source
KOUN Decoded METAR 2020/03/29 13:45 UTC NOAA

Norman / Max Westheimer, OK, United States (KOUN) 35-13N 097-27W 357M
Mar 29, 2020 - 09:45 AM EDT / 2020.03.29 1345 UTC
Wind: Calm:0
Visibility: 10 mile(s):0
Sky conditions: clear
Temperature: 48 F (9 C)
Dew Point: 39 F (4 C)
Relative Humidity: 70%
Pressure (altimeter): 30.14 in. Hg (1020 hPa)
ob: KOUN 291345Z 00000KT 10SM CLR 09/04 A3014
cycle: 14

Station Type Date Time Source
KOUN TAF 2020/03/29 12:39 UTC NOAA

TAF KOUN 291136Z 2912/3012 21007KT P6SM BKN250
FM292300 14006KT P6SM BKN250

Example: see airport list